world map with DAOV marked

DAOV - Airport

This information may not be accurate or current and is not valid for navigation or flight planning. No warranty of fitness for any purpose is made or implied.

flag of Algeria

Donate via PayPal

Additional information is available on the NEW Great Circle Mapper

Location
City:  Ghriss, Algeria
Near (Alt.):Mascara-Ghriss
ICAO / IATA:DAOV / MUW

Details
Type:Airport (Aerodrome, Airfield)
Latitude:35°13'01"N (35.216944)
Longitude:0°08'54"E (0.148333)
Elevation:1686 ft (514 m)
Runways:1
Longest:5577 × 98 ft (1700 × 30 m)

Time
Timezone:UTC+1 (DST+3)
Local Time:

Weather
METAR:DAOV  191000Z 00000KT CAVOK 12/09 Q1031
TAF:DAOV  (expired)

Related Locations
Nearby:
Farthest:NZJP: 12212 mi / 19653 km
Te Puia Springs [Hospital Heliport], NZ

Find:

   beyond  
but within

Other Information
Maps:
Links:
Sources:

  


 


Great Circle Mapper   Great Circle Mapper
Great Circle Mapper FAQ   Great Circle Mapper FAQ
  Karl's Home Page
KLSē   KLSē Home
   GC on Facebook
Airlines of the World   Airlines of the World
Donate via PayPal


Copyright © 2004-2014, Karl L. Swartz. All rights reserved.
All trademarks mentioned herein belong to their respective owners.

Please see credits for attribution and copyright information.

Karl Swartz <karl@kls2.com>
  Powered by FreeBSD
Valid HTML 4.01!
Labeled with ICRA
hCard Microformat
Geo Microformat